Time;durP1;ratioP1;P1;durP2;ratioP2;P2;SDS_P1;SDS_P2;PMS_P1;PMS_P2;Temp;Humidity;BMP_temperature;BMP_pressure;BME280_temperature;BME280_humidity;BME280_pressure;Samples;Min_cycle;Max_cycle;Signal;HPM_P1;HPM_P2
2023/12/01 00:00:22;;;;;;;17.20;5.87;;;3.10;99.90;;;;;;4182771;28;20191;-95
2023/12/01 00:02:24;;;;;;;19.03;5.53;;;2.70;99.90;;;;;;4182590;28;20171;-96
2023/12/01 00:04:25;;;;;;;18.23;6.43;;;2.90;99.90;;;;;;4182710;28;20620;-95
2023/12/01 00:06:26;;;;;;;15.00;4.93;;;2.70;99.90;;;;;;4182485;28;20164;-95
2023/12/01 00:08:27;;;;;;;18.13;4.30;;;2.70;99.90;;;;;;4182367;28;20176;-96
2023/12/01 00:10:28;;;;;;;17.97;5.40;;;3.40;99.90;;;;;;4198535;28;20241;-96
2023/12/01 00:12:28;;;;;;;22.97;7.33;;;3.60;99.90;;;;;;4198966;28;20683;-94
2023/12/01 00:14:29;;;;;;;21.97;6.77;;;3.60;99.90;;;;;;4182028;28;20171;-95
2023/12/01 00:16:30;;;;;;;15.40;4.67;;;3.70;99.90;;;;;;4181431;28;20568;-95
2023/12/01 00:18:31;;;;;;;22.23;6.80;;;3.90;99.90;;;;;;4182281;28;20176;-94
2023/12/01 00:20:32;;;;;;;10.67;4.37;;;4.10;99.90;;;;;;4182310;28;20233;-94
2023/12/01 00:22:33;;;;;;;17.10;6.07;;;4.10;99.90;;;;;;4198759;28;20269;-94
2023/12/01 00:24:33;;;;;;;25.30;7.57;;;4.00;99.90;;;;;;4182202;28;20172;-94
2023/12/01 00:26:34;;;;;;;10.93;4.13;;;4.00;99.90;;;;;;4182147;28;20255;-94
2023/12/01 00:28:36;;;;;;;19.80;5.13;;;4.00;99.90;;;;;;4182030;28;20182;-94
2023/12/01 00:30:37;;;;;;;12.80;4.87;;;3.90;99.90;;;;;;4198584;28;20203;-94
2023/12/01 00:32:38;;;;;;;12.30;4.77;;;3.70;99.90;;;;;;4182066;28;20317;-95
2023/12/01 00:34:39;;;;;;;15.03;5.40;;;3.60;99.90;;;;;;4182085;28;20659;-95
2023/12/01 00:36:39;;;;;;;15.90;5.53;;;3.50;99.90;;;;;;4181905;28;20226;-95
2023/12/01 00:38:41;;;;;;;20.87;5.90;;;3.60;99.90;;;;;;4181921;28;20586;-95
2023/12/01 00:40:42;;;;;;;16.33;5.07;;;3.60;99.90;;;;;;4182012;28;20282;-96
2023/12/01 00:42:43;;;;;;;12.27;4.67;;;3.80;99.90;;;;;;4198312;28;20167;-95
2023/12/01 00:44:45;;;;;;;13.10;5.60;;;3.40;99.90;;;;;;4181819;28;20183;-94
2023/12/01 00:46:45;;;;;;;13.50;5.17;;;3.20;99.90;;;;;;4215137;28;20174;-94
2023/12/01 00:48:46;;;;;;;26.37;5.97;;;3.30;99.90;;;;;;4198422;28;20178;-95
2023/12/01 00:50:47;;;;;;;15.70;4.70;;;3.20;99.90;;;;;;4182100;28;20266;-95
2023/12/01 00:52:49;;;;;;;20.67;4.37;;;3.50;99.90;;;;;;4181549;28;20241;-94
2023/12/01 00:54:50;;;;;;;16.90;5.00;;;3.40;99.90;;;;;;4198414;28;20170;-96
2023/12/01 00:56:50;;;;;;;24.63;6.23;;;3.30;99.90;;;;;;4198195;28;20167;-94
2023/12/01 00:58:51;;;;;;;21.40;7.27;;;3.60;99.90;;;;;;4181836;28;20164;-94
2023/12/01 01:00:52;;;;;;;19.33;6.50;;;3.80;99.90;;;;;;4182221;28;20267;-96
2023/12/01 01:02:53;;;;;;;15.40;6.10;;;3.40;99.90;;;;;;4181870;28;20168;-95
2023/12/01 01:04:54;;;;;;;23.93;5.90;;;2.90;99.90;;;;;;4198275;28;20200;-95
2023/12/01 01:06:55;;;;;;;16.73;7.13;;;2.80;99.90;;;;;;4181618;28;20668;-94
2023/12/01 01:08:56;;;;;;;14.23;5.77;;;2.50;99.90;;;;;;4181331;28;20237;-94
2023/12/01 01:10:57;;;;;;;16.20;5.47;;;2.30;99.90;;;;;;4181630;28;20255;-94
2023/12/01 01:12:58;;;;;;;25.10;7.03;;;2.30;99.90;;;;;;4181165;28;20281;-95
2023/12/01 01:15:02;;;;;;;12.77;4.87;;;2.20;99.90;;;;;;4181146;28;20172;-95
2023/12/01 01:17:03;;;;;;;15.97;5.37;;;2.20;99.90;;;;;;4181595;28;20277;-95
2023/12/01 01:19:05;;;;;;;12.90;4.97;;;2.00;99.90;;;;;;4181255;28;20195;-94
2023/12/01 01:21:06;;;;;;;29.73;7.30;;;1.80;99.90;;;;;;4197820;28;20248;-96
2023/12/01 01:23:07;;;;;;;13.50;4.90;;;1.70;99.90;;;;;;4181427;28;20163;-95
2023/12/01 01:25:08;;;;;;;9.67;4.93;;;1.60;99.90;;;;;;4181273;28;20164;-94
2023/12/01 01:27:09;;;;;;;11.37;5.40;;;1.60;99.90;;;;;;4181140;28;20167;-96
2023/12/01 01:29:10;;;;;;;27.37;6.07;;;1.70;99.90;;;;;;4197885;28;20233;-95
2023/12/01 01:31:11;;;;;;;17.83;6.50;;;1.80;99.90;;;;;;4181349;28;20180;-95
2023/12/01 01:33:12;;;;;;;18.87;5.10;;;2.00;99.90;;;;;;4180911;28;20214;-95
2023/12/01 01:35:12;;;;;;;17.90;5.13;;;2.20;99.90;;;;;;4181328;28;20194;-95
2023/12/01 01:37:13;;;;;;;13.90;5.03;;;2.40;99.90;;;;;;4181040;28;20266;-96
2023/12/01 01:39:14;;;;;;;14.30;5.37;;;2.20;99.90;;;;;;4181251;28;20198;-96
2023/12/01 01:41:15;;;;;;;22.77;5.97;;;2.30;99.90;;;;;;4181219;28;20179;-95
2023/12/01 01:43:22;;;;;;;23.47;6.80;;;3.00;99.90;;;;;;4181324;28;20179;-95
2023/12/01 01:45:23;;;;;;;20.33;6.93;;;3.30;99.90;;;;;;4197501;28;20162;-94
2023/12/01 01:47:24;;;;;;;20.73;5.20;;;3.30;99.90;;;;;;4197691;28;20173;-95
2023/12/01 01:49:26;;;;;;;17.40;5.97;;;3.20;99.90;;;;;;4181227;28;20191;-95
2023/12/01 01:51:29;;;;;;;19.63;6.13;;;3.00;99.90;;;;;;4197579;28;20206;-95
2023/12/01 01:53:30;;;;;;;19.07;7.13;;;2.70;99.90;;;;;;4181151;28;20220;-95
2023/12/01 01:55:31;;;;;;;19.90;5.53;;;2.70;99.90;;;;;;4214090;28;20198;-95
2023/12/01 01:57:38;;;;;;;24.63;7.93;;;2.90;99.90;;;;;;4197714;28;20174;-95
2023/12/01 01:59:39;;;;;;;14.97;6.37;;;3.00;99.90;;;;;;4197674;28;20183;-95
2023/12/01 02:01:40;;;;;;;26.03;6.67;;;2.90;99.90;;;;;;4197434;28;20209;-95
2023/12/01 02:03:41;;;;;;;21.27;6.10;;;2.60;99.90;;;;;;4180950;28;20258;-96
2023/12/01 02:05:42;;;;;;;15.73;5.17;;;2.40;99.90;;;;;;4180818;28;20328;-95
2023/12/01 02:07:43;;;;;;;34.50;7.27;;;2.20;99.90;;;;;;4180892;28;20171;-95
2023/12/01 02:09:44;;;;;;;15.20;5.37;;;2.30;99.90;;;;;;4180810;28;20203;-95
2023/12/01 02:11:45;;;;;;;12.70;5.47;;;2.80;99.90;;;;;;4181085;28;20204;-95
2023/12/01 02:13:46;;;;;;;26.27;5.63;;;3.40;99.90;;;;;;4181067;28;20179;-95
2023/12/01 02:15:48;;;;;;;22.60;6.40;;;3.70;99.90;;;;;;4181060;28;20690;-93
2023/12/01 02:17:49;;;;;;;16.10;6.20;;;4.20;99.90;;;;;;4197547;28;20181;-94
2023/12/01 02:19:52;;;;;;;16.60;5.97;;;4.20;99.90;;;;;;4181114;28;20187;-95
2023/12/01 02:21:54;;;;;;;20.27;6.03;;;4.20;99.90;;;;;;4197481;28;20194;-94
2023/12/01 02:23:55;;;;;;;15.33;5.60;;;4.10;99.90;;;;;;4197626;28;20167;-95
2023/12/01 02:25:57;;;;;;;17.27;6.00;;;3.90;99.90;;;;;;4197389;28;20205;-96
2023/12/01 02:28:01;;;;;;;13.90;6.27;;;4.00;99.90;;;;;;4180660;28;20517;-95
2023/12/01 02:30:02;;;;;;;20.67;6.37;;;3.70;99.90;;;;;;4197413;28;20286;-95
2023/12/01 02:32:03;;;;;;;14.87;5.07;;;3.60;99.90;;;;;;4197246;28;20241;-94
2023/12/01 02:34:04;;;;;;;14.57;6.10;;;3.60;99.90;;;;;;4180706;28;20233;-94
2023/12/01 02:36:06;;;;;;;19.83;5.87;;;3.30;99.90;;;;;;4180571;28;20179;-94
2023/12/01 02:38:07;;;;;;;16.77;5.13;;;3.70;99.90;;;;;;4180720;28;20176;-94
2023/12/01 02:40:16;;;;;;;17.40;6.63;;;3.90;99.90;;;;;;4183648;28;20194;-94
2023/12/01 02:42:16;;;;;;;23.40;5.27;;;3.70;99.90;;;;;;4200322;28;20236;-95
2023/12/01 02:44:17;;;;;;;13.67;5.70;;;3.70;99.90;;;;;;4183836;28;20167;-94
2023/12/01 02:46:22;;;;;;;16.37;6.97;;;3.60;99.90;;;;;;4183699;28;20206;-95
2023/12/01 02:48:23;;;;;;;22.60;7.50;;;3.40;99.90;;;;;;4183601;28;20171;-95
2023/12/01 02:50:24;;;;;;;14.37;6.67;;;3.60;99.90;;;;;;4183564;28;20765;-94
2023/12/01 02:52:25;;;;;;;20.03;5.43;;;3.80;99.90;;;;;;4200073;28;20215;-94
2023/12/01 02:54:26;;;;;;;23.87;6.17;;;3.80;99.90;;;;;;4183895;28;20175;-94
2023/12/01 02:56:27;;;;;;;13.60;4.67;;;3.80;99.90;;;;;;4183620;28;20571;-94
2023/12/01 02:58:28;;;;;;;22.13;6.90;;;3.60;99.90;;;;;;4183709;28;20164;-95
2023/12/01 03:00:29;;;;;;;15.73;5.63;;;3.40;99.90;;;;;;4183207;28;20180;-95
2023/12/01 03:02:30;;;;;;;19.23;6.53;;;2.80;99.90;;;;;;4200036;28;20174;-95
2023/12/01 03:04:31;;;;;;;18.53;7.07;;;2.80;99.90;;;;;;4183339;28;20206;-95
2023/12/01 03:06:32;;;;;;;20.93;5.03;;;3.40;99.90;;;;;;4183203;28;20221;-94
2023/12/01 03:08:33;;;;;;;17.93;5.80;;;3.20;99.90;;;;;;4183589;28;20160;-94
2023/12/01 03:10:34;;;;;;;14.50;5.70;;;2.70;99.90;;;;;;4199871;28;20194;-95
2023/12/01 03:12:36;;;;;;;15.23;5.80;;;2.50;99.90;;;;;;4183374;28;20294;-96
2023/12/01 03:14:37;;;;;;;18.00;5.10;;;2.30;99.90;;;;;;4183294;28;20168;-94
2023/12/01 03:16:38;;;;;;;18.43;7.40;;;2.70;99.90;;;;;;4182921;28;20250;-95
2023/12/01 03:18:39;;;;;;;25.23;7.13;;;2.50;99.90;;;;;;4199797;28;20249;-95
2023/12/01 03:20:41;;;;;;;9.77;6.27;;;2.70;99.90;;;;;;4183063;28;20187;-94
2023/12/01 03:22:44;;;;;;;16.67;6.07;;;2.60;99.90;;;;;;4199847;28;20232;-94
2023/12/01 03:24:47;;;;;;;12.63;5.87;;;2.30;99.90;;;;;;4199936;28;20171;-94
2023/12/01 03:26:48;;;;;;;25.23;6.93;;;2.00;99.90;;;;;;4199678;28;20198;-95
2023/12/01 03:28:49;;;;;;;16.50;6.80;;;2.10;99.90;;;;;;4199746;28;20170;-95
2023/12/01 03:30:50;;;;;;;16.97;6.30;;;2.10;99.90;;;;;;4183145;28;20176;-95
2023/12/01 03:32:52;;;;;;;20.17;5.93;;;2.20;99.90;;;;;;4183071;28;20211;-94
2023/12/01 03:34:53;;;;;;;19.47;6.17;;;3.00;99.90;;;;;;4182895;28;20178;-95
2023/12/01 03:36:53;;;;;;;23.13;6.57;;;3.50;99.90;;;;;;4199531;28;20270;-95
2023/12/01 03:38:54;;;;;;;14.37;6.57;;;3.50;99.90;;;;;;4183280;28;20218;-94
2023/12/01 03:40:55;;;;;;;13.07;6.23;;;3.10;99.90;;;;;;4182901;28;20176;-95
2023/12/01 03:42:56;;;;;;;21.00;8.17;;;2.80;99.90;;;;;;4183012;28;20624;-94
2023/12/01 03:44:57;;;;;;;23.33;5.97;;;3.10;99.90;;;;;;4183003;28;20670;-95
2023/12/01 03:46:58;;;;;;;16.50;6.70;;;3.00;99.90;;;;;;4183090;28;20202;-95
2023/12/01 03:48:59;;;;;;;18.07;6.97;;;3.00;99.90;;;;;;4182739;28;20194;-95
2023/12/01 03:51:00;;;;;;;16.93;7.03;;;3.30;99.90;;;;;;4182692;28;20174;-95
2023/12/01 03:53:01;;;;;;;19.07;5.93;;;3.50;99.90;;;;;;4199188;28;20597;-94
2023/12/01 03:55:02;;;;;;;15.77;6.53;;;3.60;99.90;;;;;;4182672;28;20175;-94
2023/12/01 03:57:04;;;;;;;14.30;6.53;;;3.40;99.90;;;;;;4182673;28;20168;-94
2023/12/01 03:59:09;;;;;;;26.80;8.10;;;3.10;99.90;;;;;;4182724;28;20187;-94
2023/12/01 04:01:10;;;;;;;22.80;6.70;;;3.00;99.90;;;;;;4182565;28;20168;-95
2023/12/01 04:03:11;;;;;;;12.00;4.97;;;2.90;99.90;;;;;;4182637;28;20303;-95
2023/12/01 04:05:22;;;;;;;18.97;6.63;;;2.80;99.90;;;;;;4182524;28;20167;-94
2023/12/01 04:07:24;;;;;;;19.13;6.63;;;2.80;99.90;;;;;;4182791;28;20229;-95
2023/12/01 04:09:25;;;;;;;24.87;6.93;;;2.70;99.90;;;;;;4182365;28;20195;-95
2023/12/01 04:11:26;;;;;;;21.33;7.57;;;2.70;99.90;;;;;;4182418;28;20635;-94
2023/12/01 04:13:27;;;;;;;13.80;6.13;;;2.80;99.90;;;;;;4198901;28;20213;-94
2023/12/01 04:15:28;;;;;;;15.40;6.83;;;2.60;99.90;;;;;;4182386;28;20179;-94
2023/12/01 04:17:29;;;;;;;23.70;7.40;;;2.70;99.90;;;;;;4199021;28;20171;-93
2023/12/01 04:19:30;;;;;;;26.40;6.67;;;2.70;99.90;;;;;;4198886;28;20186;-94
2023/12/01 04:21:30;;;;;;;25.10;7.53;;;3.00;99.90;;;;;;4182323;28;20220;-94
2023/12/01 04:23:31;;;;;;;15.87;6.47;;;3.10;99.90;;;;;;4182205;28;20266;-94
2023/12/01 04:25:33;;;;;;;24.63;7.47;;;3.00;99.90;;;;;;4198609;28;20550;-94
2023/12/01 04:27:34;;;;;;;18.57;7.27;;;2.90;99.90;;;;;;4182261;28;20259;-95
2023/12/01 04:29:35;;;;;;;14.23;7.30;;;3.00;99.90;;;;;;4182190;28;20305;-95
2023/12/01 04:31:35;;;;;;;25.53;7.43;;;2.80;99.90;;;;;;4181862;28;20167;-94
2023/12/01 04:33:36;;;;;;;26.50;9.07;;;3.00;99.90;;;;;;4182271;28;20171;-95
2023/12/01 04:35:37;;;;;;;20.73;8.03;;;3.10;99.90;;;;;;4182023;28;20182;-95
2023/12/01 04:37:40;;;;;;;21.57;6.70;;;3.20;99.90;;;;;;4182031;28;20203;-95
2023/12/01 04:39:41;;;;;;;21.13;7.10;;;2.90;99.90;;;;;;4181915;28;20199;-94
2023/12/01 04:41:42;;;;;;;16.73;7.17;;;3.00;99.90;;;;;;4181980;28;20271;-95
2023/12/01 04:43:43;;;;;;;16.43;6.40;;;3.10;99.90;;;;;;4181794;28;20727;-94
2023/12/01 04:45:44;;;;;;;19.43;8.40;;;3.40;99.90;;;;;;4198386;28;20258;-95
2023/12/01 04:47:50;;;;;;;13.07;6.60;;;3.30;99.90;;;;;;4181881;28;20206;-94
2023/12/01 04:49:51;;;;;;;22.17;6.83;;;2.90;99.90;;;;;;4198427;28;20273;-95
2023/12/01 04:51:52;;;;;;;13.83;6.97;;;2.50;99.90;;;;;;4198234;28;20222;-94
2023/12/01 04:53:53;;;;;;;14.57;6.47;;;2.20;99.90;;;;;;4181665;28;20233;-95
2023/12/01 04:55:54;;;;;;;20.63;7.67;;;1.90;99.90;;;;;;4181757;28;20550;-94
2023/12/01 04:57:56;;;;;;;20.93;8.60;;;2.00;99.90;;;;;;4181816;28;20171;-94
2023/12/01 04:59:57;;;;;;;18.73;7.57;;;2.10;99.90;;;;;;4181662;28;20219;-96
2023/12/01 05:01:57;;;;;;;19.17;7.70;;;2.80;99.90;;;;;;4197936;28;20647;-95
2023/12/01 05:03:58;;;;;;;13.73;6.57;;;3.20;99.90;;;;;;4181779;28;20183;-94
2023/12/01 05:05:59;;;;;;;21.17;8.77;;;3.00;99.90;;;;;;4181654;28;20163;-95
2023/12/01 05:08:04;;;;;;;17.70;7.03;;;2.80;99.90;;;;;;4181632;28;20180;-94
2023/12/01 05:10:08;;;;;;;21.87;8.33;;;2.90;99.90;;;;;;4215032;28;20221;-95
2023/12/01 05:12:09;;;;;;;18.90;7.37;;;2.90;99.90;;;;;;4198340;28;20206;-96
2023/12/01 05:14:10;;;;;;;13.00;5.40;;;2.90;99.90;;;;;;4181929;28;20183;-94
2023/12/01 05:16:11;;;;;;;18.70;7.87;;;2.60;99.90;;;;;;4198082;28;20175;-94
2023/12/01 05:18:12;;;;;;;16.83;7.53;;;2.70;99.90;;;;;;4181732;28;20167;-95
2023/12/01 05:20:17;;;;;;;25.33;8.23;;;2.90;99.90;;;;;;4181699;28;20270;-95
2023/12/01 05:22:18;;;;;;;19.40;7.27;;;2.80;99.90;;;;;;4182118;28;20214;-95
2023/12/01 05:24:19;;;;;;;26.90;8.53;;;2.70;99.90;;;;;;4181588;28;20178;-95
2023/12/01 05:26:19;;;;;;;18.93;6.57;;;2.60;99.90;;;;;;4181490;28;20167;-95
2023/12/01 05:28:20;;;;;;;19.70;6.60;;;2.40;99.90;;;;;;4181463;28;20189;-94
2023/12/01 05:30:26;;;;;;;13.53;5.47;;;2.30;99.90;;;;;;4181042;28;20251;-94
2023/12/01 05:32:27;;;;;;;19.50;7.17;;;2.30;99.90;;;;;;4197796;28;20221;-94
2023/12/01 05:34:27;;;;;;;17.93;8.20;;;2.10;99.90;;;;;;4181591;28;20167;-94
2023/12/01 05:36:28;;;;;;;17.33;7.20;;;2.50;99.90;;;;;;4181352;28;20205;-94
2023/12/01 05:38:29;;;;;;;26.73;7.80;;;2.60;99.90;;;;;;4181168;28;20163;-94
2023/12/01 05:40:35;;;;;;;19.90;7.70;;;2.70;99.90;;;;;;4181560;28;20227;-94
2023/12/01 05:42:37;;;;;;;27.80;7.77;;;2.70;99.90;;;;;;4197888;28;20171;-95
2023/12/01 05:44:37;;;;;;;18.43;6.13;;;2.80;99.90;;;;;;4181176;28;20711;-95
2023/12/01 05:46:39;;;;;;;20.60;6.30;;;2.50;99.90;;;;;;4180904;28;20160;-94
2023/12/01 05:48:41;;;;;;;20.37;8.37;;;2.20;99.90;;;;;;4181271;28;20314;-94
2023/12/01 05:50:42;;;;;;;16.37;4.87;;;2.40;99.90;;;;;;4197638;28;20197;-95
2023/12/01 05:52:45;;;;;;;17.00;6.80;;;2.40;99.90;;;;;;4197398;28;20222;-95
2023/12/01 05:54:46;;;;;;;15.73;6.07;;;2.30;99.90;;;;;;4197476;28;20198;-94
2023/12/01 05:56:47;;;;;;;14.73;6.10;;;2.40;99.90;;;;;;4180995;28;20171;-96
2023/12/01 05:58:48;;;;;;;20.40;8.90;;;2.40;99.90;;;;;;4180912;28;20163;-94
2023/12/01 06:00:48;;;;;;;16.40;7.27;;;2.20;99.90;;;;;;4181594;28;20674;-94
2023/12/01 06:02:51;;;;;;;15.70;5.40;;;2.10;99.90;;;;;;4181661;28;20163;-95
2023/12/01 06:04:52;;;;;;;15.87;7.57;;;2.30;99.90;;;;;;4181132;28;20643;-95
2023/12/01 06:06:52;;;;;;;23.10;7.23;;;1.90;99.90;;;;;;4197589;28;20155;-94
2023/12/01 06:08:53;;;;;;;16.53;6.30;;;1.80;99.90;;;;;;4180795;28;20174;-94
2023/12/01 06:10:54;;;;;;;11.73;4.93;;;2.00;99.90;;;;;;4180938;28;20167;-93
2023/12/01 06:12:56;;;;;;;17.77;7.30;;;2.30;99.90;;;;;;4197461;28;20218;-93
2023/12/01 06:14:56;;;;;;;10.73;4.73;;;2.50;99.90;;;;;;4183962;28;20721;-92
2023/12/01 06:16:57;;;;;;;17.87;6.07;;;2.40;99.90;;;;;;4184377;28;20172;-93
2023/12/01 06:18:58;;;;;;;15.63;5.50;;;2.30;99.90;;;;;;4184048;28;20193;-92
2023/12/01 06:20:59;;;;;;;17.40;6.63;;;2.20;99.90;;;;;;4200600;28;20163;-93
2023/12/01 06:23:06;;;;;;;11.67;4.07;;;1.90;99.90;;;;;;4184076;28;20179;-93
2023/12/01 06:25:07;;;;;;;16.73;6.40;;;1.90;99.90;;;;;;4200845;28;20167;-93
2023/12/01 06:27:08;;;;;;;13.63;5.43;;;1.60;99.90;;;;;;4184114;28;20209;-93
2023/12/01 06:29:09;;;;;;;28.17;6.83;;;1.60;99.90;;;;;;4183953;28;20187;-92
2023/12/01 06:31:10;;;;;;;11.83;5.43;;;1.70;99.90;;;;;;4183832;28;20171;-93
2023/12/01 06:33:12;;;;;;;12.60;5.07;;;1.90;99.90;;;;;;4183867;28;20219;-94
2023/12/01 06:35:15;;;;;;;18.13;6.33;;;1.70;99.90;;;;;;4200513;28;20175;-93
2023/12/01 06:37:17;;;;;;;11.40;5.13;;;1.60;99.90;;;;;;4183938;28;20190;-93
2023/12/01 06:39:18;;;;;;;16.07;6.73;;;1.40;99.90;;;;;;4200392;28;20187;-92
2023/12/01 06:41:19;;;;;;;15.00;5.93;;;1.30;99.90;;;;;;4200371;28;20225;-93
2023/12/01 06:43:20;;;;;;;18.43;5.10;;;1.30;99.90;;;;;;4183995;28;20632;-93
2023/12/01 06:45:23;;;;;;;14.47;5.87;;;1.40;99.90;;;;;;4183929;28;20167;-94
2023/12/01 06:47:24;;;;;;;15.43;7.37;;;1.30;99.90;;;;;;4183960;28;20261;-93
2023/12/01 06:49:25;;;;;;;21.10;7.03;;;1.80;99.90;;;;;;4200554;28;20195;-93
2023/12/01 06:51:26;;;;;;;19.53;6.07;;;2.10;99.90;;;;;;4184056;28;20172;-94
2023/12/01 06:53:27;;;;;;;16.40;6.03;;;2.50;99.90;;;;;;4183824;28;20218;-92
2023/12/01 06:55:28;;;;;;;23.33;7.37;;;2.80;99.90;;;;;;4183767;28;20620;-93
2023/12/01 06:57:29;;;;;;;20.30;7.73;;;2.80;99.90;;;;;;4183687;28;20517;-93
2023/12/01 06:59:30;;;;;;;15.13;5.37;;;2.90;99.90;;;;;;4183477;28;20227;-92
2023/12/01 07:01:30;;;;;;;19.93;4.80;;;2.70;99.90;;;;;;4200197;28;20209;-93
2023/12/01 07:03:31;;;;;;;17.90;6.13;;;2.40;99.90;;;;;;4183576;28;20687;-94
2023/12/01 07:05:35;;;;;;;15.13;4.60;;;2.00;99.90;;;;;;4199991;28;20646;-93
2023/12/01 07:07:37;;;;;;;10.80;4.93;;;1.70;99.90;;;;;;4183615;28;20175;-93
2023/12/01 07:09:41;;;;;;;19.40;5.97;;;1.40;99.90;;;;;;4183632;28;20229;-93
2023/12/01 07:11:45;;;;;;;25.70;6.33;;;1.30;99.90;;;;;;4183746;28;20171;-93
2023/12/01 07:13:47;;;;;;;8.70;3.77;;;1.20;99.90;;;;;;4216900;28;20178;-93
2023/12/01 07:15:48;;;;;;;16.93;4.50;;;1.30;99.90;;;;;;4199746;28;20178;-93
2023/12/01 07:17:56;;;;;;;13.53;4.43;;;1.30;99.90;;;;;;4199919;28;20170;-94
2023/12/01 07:19:57;;;;;;;8.00;4.87;;;1.20;99.90;;;;;;4183312;28;20191;-93
2023/12/01 07:21:59;;;;;;;13.40;4.23;;;1.10;99.90;;;;;;4199649;28;20171;-92
2023/12/01 07:24:02;;;;;;;14.87;5.07;;;1.40;99.90;;;;;;4183094;28;20175;-93
2023/12/01 07:26:03;;;;;;;17.00;5.27;;;1.70;99.90;;;;;;4182987;28;20176;-92
2023/12/01 07:28:11;;;;;;;12.27;4.87;;;2.10;99.90;;;;;;4199882;28;20217;-93
2023/12/01 07:30:16;;;;;;;14.23;4.23;;;2.20;99.90;;;;;;4199497;28;20679;-93
2023/12/01 07:32:17;;;;;;;21.10;3.90;;;2.20;99.90;;;;;;4199562;28;20293;-93
2023/12/01 07:34:18;;;;;;;22.80;6.43;;;2.30;99.90;;;;;;4182945;28;20175;-93
2023/12/01 07:36:19;;;;;;;17.13;5.93;;;2.60;99.90;;;;;;4183301;28;20163;-93
2023/12/01 07:38:20;;;;;;;8.60;4.23;;;2.60;99.90;;;;;;4199641;28;20175;-93
2023/12/01 07:40:23;;;;;;;11.20;5.60;;;2.30;99.90;;;;;;4199941;28;20277;-92
2023/12/01 07:42:24;;;;;;;12.67;5.57;;;1.90;99.90;;;;;;4199656;28;20320;-93
2023/12/01 07:44:25;;;;;;;11.17;4.13;;;1.60;99.90;;;;;;4182644;28;20177;-93
2023/12/01 07:46:26;;;;;;;15.23;6.43;;;1.70;99.90;;;;;;4182723;28;20199;-93
2023/12/01 07:48:27;;;;;;;13.87;5.77;;;1.90;99.90;;;;;;4182879;28;20179;-92
2023/12/01 07:50:28;;;;;;;18.70;6.63;;;1.80;99.90;;;;;;4182831;28;20623;-93
2023/12/01 07:52:28;;;;;;;9.57;4.97;;;1.80;99.90;;;;;;4183187;28;20261;-93
2023/12/01 07:54:29;;;;;;;13.33;5.63;;;1.80;99.90;;;;;;4182988;28;20172;-92
2023/12/01 07:56:30;;;;;;;18.53;5.83;;;1.60;99.90;;;;;;4182799;28;20207;-93
2023/12/01 07:58:31;;;;;;;19.00;5.57;;;1.80;99.90;;;;;;4182999;28;20199;-93
2023/12/01 08:00:32;;;;;;;19.70;6.77;;;1.90;99.90;;;;;;4199115;28;20187;-93
2023/12/01 08:02:33;;;;;;;12.73;6.10;;;1.70;99.90;;;;;;4182761;28;20202;-93
2023/12/01 08:04:33;;;;;;;17.97;4.97;;;1.60;99.90;;;;;;4182763;28;20256;-92
2023/12/01 08:06:34;;;;;;;14.33;5.80;;;1.60;99.90;;;;;;4182540;28;20172;-92
2023/12/01 08:08:35;;;;;;;18.63;5.80;;;1.70;99.90;;;;;;4182344;28;20606;-93
2023/12/01 08:10:36;;;;;;;18.97;5.10;;;1.50;99.90;;;;;;4182526;28;20203;-93
2023/12/01 08:12:37;;;;;;;16.50;5.70;;;1.70;99.90;;;;;;4182476;28;20564;-92
2023/12/01 08:14:38;;;;;;;27.60;6.43;;;1.80;99.90;;;;;;4199105;28;20174;-93
2023/12/01 08:16:39;;;;;;;13.17;5.13;;;1.80;99.90;;;;;;4182622;28;20171;-92
2023/12/01 08:18:40;;;;;;;9.70;4.00;;;1.70;99.90;;;;;;4182714;28;20241;-94
2023/12/01 08:20:41;;;;;;;10.37;5.47;;;1.60;99.90;;;;;;4182491;28;20253;-93
2023/12/01 08:22:48;;;;;;;9.33;4.83;;;1.40;99.90;;;;;;4182347;28;20560;-93
2023/12/01 08:24:50;;;;;;;8.73;4.40;;;1.00;99.90;;;;;;4182264;28;20221;-92
2023/12/01 08:26:51;;;;;;;5.20;2.67;;;0.90;99.90;;;;;;4182256;28;20186;-93
2023/12/01 08:28:53;;;;;;;4.73;2.93;;;0.90;99.90;;;;;;4182154;28;20171;-93
2023/12/01 08:30:54;;;;;;;11.33;3.87;;;0.90;99.90;;;;;;4215317;28;20166;-93
2023/12/01 08:32:55;;;;;;;10.57;2.63;;;0.90;99.90;;;;;;4181806;28;20211;-93
2023/12/01 08:34:56;;;;;;;15.50;5.23;;;1.00;99.90;;;;;;4182359;28;20179;-93
2023/12/01 08:36:56;;;;;;;10.77;4.57;;;1.40;99.90;;;;;;4181467;28;20201;-93
2023/12/01 08:38:57;;;;;;;20.73;5.30;;;1.50;99.90;;;;;;4198622;28;20174;-93
2023/12/01 08:40:58;;;;;;;12.93;5.13;;;1.50;99.90;;;;;;4181808;28;20243;-93
2023/12/01 08:42:59;;;;;;;30.17;7.43;;;1.80;99.90;;;;;;4181962;28;20191;-94
2023/12/01 08:45:00;;;;;;;32.27;6.63;;;1.60;99.90;;;;;;4198698;28;20700;-92
2023/12/01 08:47:01;;;;;;;21.57;7.37;;;1.80;99.90;;;;;;4198459;28;20179;-94
2023/12/01 08:49:02;;;;;;;18.33;6.23;;;1.80;99.90;;;;;;4198486;28;20731;-93
2023/12/01 08:51:03;;;;;;;18.73;6.23;;;1.70;99.90;;;;;;4182104;28;20180;-92
2023/12/01 08:53:04;;;;;;;27.17;6.73;;;1.70;99.90;;;;;;4181489;28;20690;-93
2023/12/01 08:55:06;;;;;;;13.10;6.23;;;1.80;99.90;;;;;;4214847;28;20179;-92
2023/12/01 08:57:07;;;;;;;14.23;5.33;;;1.60;99.90;;;;;;4181731;28;20175;-93
2023/12/01 08:59:08;;;;;;;22.07;6.03;;;1.40;99.90;;;;;;4198425;28;20659;-93
2023/12/01 09:01:09;;;;;;;17.63;6.30;;;1.30;99.90;;;;;;4181826;28;20310;-93
2023/12/01 09:03:10;;;;;;;23.20;8.03;;;1.50;99.90;;;;;;4181893;28;20183;-93
2023/12/01 09:05:11;;;;;;;16.07;5.93;;;1.70;99.90;;;;;;4181502;28;20193;-92
2023/12/01 09:07:12;;;;;;;24.37;8.40;;;1.80;99.90;;;;;;4181568;28;20172;-93
2023/12/01 09:09:13;;;;;;;10.63;4.07;;;1.60;99.90;;;;;;4181416;28;20727;-92
2023/12/01 09:11:14;;;;;;;22.50;7.40;;;1.30;99.90;;;;;;4181702;28;20230;-93
2023/12/01 09:13:14;;;;;;;13.47;5.30;;;1.40;99.90;;;;;;4181501;28;20204;-93
2023/12/01 09:15:15;;;;;;;17.27;6.17;;;1.40;99.90;;;;;;4181414;28;20203;-93
2023/12/01 09:17:16;;;;;;;7.97;3.40;;;1.30;99.90;;;;;;4181443;28;20253;-93
2023/12/01 09:19:17;;;;;;;24.70;7.27;;;1.30;99.90;;;;;;4181483;28;20241;-93
2023/12/01 09:21:18;;;;;;;15.17;6.53;;;1.30;99.90;;;;;;4197850;28;20240;-92
2023/12/01 09:23:19;;;;;;;23.40;6.83;;;1.20;99.90;;;;;;4181560;28;20176;-92
2023/12/01 09:25:20;;;;;;;15.03;5.63;;;1.30;99.90;;;;;;4198041;28;20167;-94
2023/12/01 09:27:21;;;;;;;18.33;5.73;;;1.70;99.90;;;;;;4198204;28;20213;-94
2023/12/01 09:29:22;;;;;;;22.87;7.30;;;2.00;99.90;;;;;;4181315;28;20195;-94
2023/12/01 09:31:23;;;;;;;16.77;6.27;;;2.10;99.90;;;;;;4181247;28;20168;-93
2023/12/01 09:33:24;;;;;;;23.07;5.80;;;2.00;99.90;;;;;;4181467;28;20242;-92
2023/12/01 09:35:26;;;;;;;13.53;4.87;;;1.90;99.90;;;;;;4197718;28;20193;-94
2023/12/01 09:37:26;;;;;;;21.37;7.63;;;2.10;99.90;;;;;;4181075;28;20171;-95
2023/12/01 09:39:29;;;;;;;22.00;8.00;;;2.40;99.90;;;;;;4181288;28;20245;-93
2023/12/01 09:41:30;;;;;;;21.73;7.20;;;2.50;99.90;;;;;;4181249;28;20176;-92
2023/12/01 09:43:34;;;;;;;24.83;9.03;;;2.40;99.90;;;;;;4181168;28;20178;-93
2023/12/01 09:45:35;;;;;;;24.37;7.47;;;2.20;99.90;;;;;;4181187;28;20180;-92
2023/12/01 09:47:42;;;;;;;23.60;8.20;;;2.10;99.90;;;;;;4180809;28;20528;-92
2023/12/01 09:49:46;;;;;;;17.97;6.63;;;2.10;99.90;;;;;;4181483;28;20651;-91
2023/12/01 09:51:47;;;;;;;18.77;6.97;;;2.00;99.90;;;;;;4181124;28;20188;-93
2023/12/01 09:53:47;;;;;;;26.30;8.17;;;2.00;99.90;;;;;;4197963;28;20273;-93
2023/12/01 09:55:49;;;;;;;18.67;6.70;;;1.80;99.90;;;;;;4198089;28;20250;-92
2023/12/01 09:57:52;;;;;;;11.43;5.17;;;1.90;99.90;;;;;;4181149;28;20171;-92
2023/12/01 09:59:53;;;;;;;18.67;6.87;;;1.80;99.90;;;;;;4181085;28;20199;-93
2023/12/01 10:01:54;;;;;;;18.03;6.30;;;1.80;99.90;;;;;;4181173;28;20222;-92
2023/12/01 10:03:55;;;;;;;13.03;5.90;;;1.90;99.90;;;;;;4180978;28;20171;-93
2023/12/01 10:05:58;;;;;;;28.10;8.43;;;1.90;99.90;;;;;;4197764;28;20186;-94
2023/12/01 10:07:59;;;;;;;20.23;6.27;;;1.90;99.90;;;;;;4197716;28;20170;-93
2023/12/01 10:10:19;;;;;;;30.20;8.47;;;2.10;99.90;;;;;;4197446;28;20233;-92
2023/12/01 10:12:20;;;;;;;30.50;9.17;;;2.00;99.90;;;;;;4197403;28;20220;-93
2023/12/01 10:14:21;;;;;;;28.80;8.23;;;1.90;99.90;;;;;;4181008;28;20172;-93
2023/12/01 10:16:22;;;;;;;16.83;5.50;;;1.90;99.90;;;;;;4180811;28;20195;-93
2023/12/01 10:18:23;;;;;;;25.53;6.30;;;1.90;99.90;;;;;;4180910;28;20171;-92
2023/12/01 10:20:24;;;;;;;14.63;5.30;;;2.00;99.90;;;;;;4180874;28;20345;-93
2023/12/01 10:22:25;;;;;;;26.13;8.97;;;2.20;99.90;;;;;;4180822;28;20630;-93
2023/12/01 10:24:26;;;;;;;30.27;7.63;;;2.20;99.90;;;;;;4197545;28;20174;-93
2023/12/01 10:26:30;;;;;;;25.20;8.63;;;2.10;99.90;;;;;;4197478;28;20217;-93
2023/12/01 10:28:42;;;;;;;21.37;5.50;;;2.10;99.90;;;;;;4197480;28;20614;-93
2023/12/01 10:31:15;;;;;;;25.40;8.20;;;2.00;99.90;;;;;;4197091;28;20202;-93
2023/12/01 10:33:16;;;;;;;15.80;5.03;;;2.10;99.90;;;;;;4176663;28;20223;-94